Time;durP1;ratioP1;P1;durP2;ratioP2;P2;SDS_P1;SDS_P2;PMS_P1;PMS_P2;Temp;Humidity;BMP_temperature;BMP_pressure;BME280_temperature;BME280_humidity;BME280_pressure;Samples;Min_cycle;Max_cycle;Signal;HPM_P1;HPM_P2
2024/03/30 00:01:39;;;;;;;;;1.50;1.00;;;;;12.00;83.47;99169.06;5081427;27;46210;-62
2024/03/30 00:04:05;;;;;;;;;0.00;0.00;;;;;12.13;83.60;99191.41;5079909;28;45343;-62
2024/03/30 00:06:30;;;;;;;;;1.00;1.00;;;;;12.01;83.50;99168.09;5081614;27;45360;-62
2024/03/30 00:08:56;;;;;;;;;1.00;1.00;;;;;12.10;83.56;99178.22;5081137;27;47426;-62
2024/03/30 00:11:21;;;;;;;;;0.00;0.00;;;;;12.19;83.68;99184.78;5081273;27;49240;-62
2024/03/30 00:13:46;;;;;;;;;1.00;1.00;;;;;12.19;83.66;99182.13;5079997;28;45419;-62
2024/03/30 00:16:12;;;;;;;;;1.00;1.00;;;;;11.96;83.56;99154.16;5076289;28;45325;-62
2024/03/30 00:18:38;;;;;;;;;2.00;0.25;;;;;12.08;84.01;99180.13;5076475;27;45360;-62
2024/03/30 00:21:03;;;;;;;;;1.00;0.50;;;;;12.01;83.75;99168.09;5070840;28;48320;-62
2024/03/30 00:23:32;;;;;;;;;0.75;0.75;;;;;12.07;83.92;99174.88;5080879;27;45584;-62
2024/03/30 00:25:59;;;;;;;;;2.00;1.00;;;;;12.04;83.82;99173.25;5081219;27;45543;-62
2024/03/30 00:28:24;;;;;;;;;1.00;1.00;;;;;12.01;84.19;99166.28;5080806;27;45375;-62
2024/03/30 00:30:50;;;;;;;;;0.75;0.75;;;;;11.84;84.24;99140.59;5081109;27;45307;-62
2024/03/30 00:33:16;;;;;;;;;2.00;0.75;;;;;11.90;84.16;99154.53;5080936;28;45423;-62
2024/03/30 00:35:43;;;;;;;;;1.75;1.00;;;;;11.85;84.08;99139.63;5079779;28;45404;-62
2024/03/30 00:38:09;;;;;;;;;0.25;0.25;;;;;11.90;84.21;99144.69;5080699;28;45434;-62
2024/03/30 00:40:35;;;;;;;;;1.50;0.00;;;;;11.85;83.54;99134.28;5081029;27;45440;-62
2024/03/30 00:43:02;;;;;;;;;1.00;1.00;;;;;11.76;83.22;99113.50;5080680;27;45456;-62
2024/03/30 00:45:28;;;;;;;;;1.00;1.00;;;;;11.95;82.68;99139.94;5081019;27;45510;-62
2024/03/30 00:47:53;;;;;;;;;0.25;0.00;;;;;11.87;82.92;99129.69;5080640;27;45457;-62
2024/03/30 00:50:18;;;;;;;;;0.00;0.00;;;;;12.02;82.60;99153.78;5080937;27;45441;-62
2024/03/30 00:52:44;;;;;;;;;0.25;0.00;;;;;12.02;83.49;99157.28;5080381;27;45294;-62
2024/03/30 00:55:09;;;;;;;;;0.00;0.00;;;;;12.04;83.54;99160.75;5080993;28;45478;-62
2024/03/30 00:57:41;;;;;;;;;1.00;1.00;;;;;11.86;83.38;99125.31;5080407;28;45532;-62
2024/03/30 01:00:07;;;;;;;;;0.00;0.00;;;;;11.85;83.56;99118.22;5080600;27;45549;-62
2024/03/30 01:02:32;;;;;;;;;0.00;0.00;;;;;11.85;83.13;99114.72;5080244;27;45623;-62
2024/03/30 01:04:58;;;;;;;;;0.00;0.00;;;;;12.00;82.81;99134.31;5080726;27;45420;-62
2024/03/30 01:07:23;;;;;;;;;0.00;0.00;;;;;11.83;83.02;99100.59;5080164;27;45443;-62
2024/03/30 01:09:48;;;;;;;;;0.00;0.00;;;;;11.76;83.19;99099.25;5080437;28;46723;-62
2024/03/30 01:12:14;;;;;;;;;0.00;0.00;;;;;11.83;83.08;99104.13;5078990;28;45341;-62
2024/03/30 01:14:40;;;;;;;;;1.00;0.00;;;;;11.86;83.28;99108.38;5080581;28;45567;-62
2024/03/30 01:17:06;;;;;;;;;0.00;0.00;;;;;11.86;83.18;99106.59;5080335;27;45378;-62
2024/03/30 01:19:32;;;;;;;;;0.00;0.00;;;;;11.76;83.17;99092.09;5080236;27;46524;-62
2024/03/30 01:21:57;;;;;;;;;0.25;0.25;;;;;11.76;83.12;99085.88;5080089;28;45333;-62
2024/03/30 01:24:23;;;;;;;;;0.00;0.00;;;;;11.65;83.14;99071.38;5080041;27;45295;-62
2024/03/30 01:26:56;;;;;;;;;0.00;0.00;;;;;11.72;83.48;99076.34;5075305;28;45608;-62
2024/03/30 01:29:25;;;;;;;;;0.25;0.25;;;;;11.77;83.45;99076.91;5073473;28;46613;-62
2024/03/30 01:31:52;;;;;;;;;0.75;0.75;;;;;11.78;83.47;99070.63;5078808;28;45408;-62
2024/03/30 01:34:18;;;;;;;;;0.00;0.00;;;;;11.63;83.36;99046.56;5093341;27;45536;-63
2024/03/30 01:36:43;;;;;;;;;0.00;0.00;;;;;11.82;82.55;99074.81;5078838;28;45575;-62
2024/03/30 01:39:08;;;;;;;;;0.00;0.00;;;;;11.66;82.62;99050.84;5079802;27;46535;-62
2024/03/30 01:41:37;;;;;;;;;0.00;0.00;;;;;11.79;82.91;99064.31;5079677;28;55660;-62
2024/03/30 01:44:04;;;;;;;;;0.00;0.00;;;;;11.69;83.08;99050.66;5080030;27;45372;-62
2024/03/30 01:46:30;;;;;;;;;0.00;0.00;;;;;11.77;82.97;99063.53;5078570;28;46110;-62
2024/03/30 01:48:56;;;;;;;;;0.00;0.00;;;;;11.78;82.88;99063.44;5079937;27;46177;-62
2024/03/30 01:51:23;;;;;;;;;0.00;0.00;;;;;11.72;82.75;99050.47;5079887;27;45479;-63
2024/03/30 01:53:49;;;;;;;;;3.00;0.00;;;;;11.59;83.12;99026.34;5079786;27;45559;-62
2024/03/30 01:56:14;;;;;;;;;0.00;0.00;;;;;11.79;82.31;99062.47;5079924;27;45239;-62
2024/03/30 01:58:40;;;;;;;;;0.00;0.00;;;;;11.67;83.12;99036.53;5079546;27;46208;-62
2024/03/30 02:01:06;;;;;;;;;0.00;0.00;;;;;11.84;82.74;99071.09;5079715;27;45256;-63
2024/03/30 02:03:32;;;;;;;;;0.00;0.00;;;;;11.67;83.32;99039.22;5079691;28;45396;-63
2024/03/30 02:05:59;;;;;;;;;0.25;0.00;;;;;11.84;83.13;99064.84;5079575;27;45268;-62
2024/03/30 02:08:27;;;;;;;;;0.00;0.00;;;;;11.54;83.15;99019.56;5079259;27;45539;-62
2024/03/30 02:10:53;;;;;;;;;0.00;0.00;;;;;11.70;83.37;99049.72;5078237;28;45373;-62
2024/03/30 02:13:19;;;;;;;;;0.00;0.00;;;;;11.73;83.19;99051.31;5095012;27;45418;-62
2024/03/30 02:15:45;;;;;;;;;0.00;0.00;;;;;11.62;83.26;99044.00;5078027;28;45654;-62
2024/03/30 02:18:10;;;;;;;;;0.00;0.00;;;;;11.71;83.40;99048.78;5078787;28;46199;-62
2024/03/30 02:20:36;;;;;;;;;0.00;0.00;;;;;11.56;84.12;99029.22;5079263;27;45247;-62
2024/03/30 02:23:01;;;;;;;;;0.00;0.00;;;;;11.56;83.73;99031.03;5061095;28;45557;-62
2024/03/30 02:25:27;;;;;;;;;0.00;0.00;;;;;11.73;84.08;99062.88;5091651;27;45371;-62
2024/03/30 02:27:52;;;;;;;;;0.00;0.00;;;;;11.45;83.06;99024.56;5073525;28;46233;-62
2024/03/30 02:30:27;;;;;;;;;0.00;0.00;;;;;11.56;83.21;99037.25;5079439;28;45329;-62
2024/03/30 02:32:53;;;;;;;;;0.00;0.00;;;;;11.74;82.98;99066.41;5077979;28;45323;-62
2024/03/30 02:35:19;;;;;;;;;0.00;0.00;;;;;11.75;82.91;99066.31;5079300;27;45761;-62
2024/03/30 02:37:46;;;;;;;;;0.00;0.00;;;;;11.59;82.21;99033.50;5078976;27;45410;-62
2024/03/30 02:40:11;;;;;;;;;0.00;0.00;;;;;11.60;82.77;99027.22;5079251;27;45602;-62
2024/03/30 02:42:37;;;;;;;;;0.00;0.00;;;;;11.56;82.46;99023.00;5077886;28;45379;-62
2024/03/30 02:45:02;;;;;;;;;1.00;0.00;;;;;11.62;82.63;99042.19;5079238;27;45609;-62
2024/03/30 02:47:28;;;;;;;;;0.00;0.00;;;;;11.54;82.97;99027.59;5078662;27;46468;-62
2024/03/30 02:49:53;;;;;;;;;0.00;0.00;;;;;11.51;83.39;99031.34;5077688;28;45378;-62
2024/03/30 02:52:19;;;;;;;;;1.00;0.00;;;;;11.50;83.40;99026.94;5078916;28;45452;-62
2024/03/30 02:54:44;;;;;;;;;0.00;0.00;;;;;11.67;83.68;99061.44;5079191;28;45412;-62
2024/03/30 02:57:09;;;;;;;;;0.00;0.00;;;;;11.63;83.64;99056.41;5078872;27;45557;-62
2024/03/30 02:59:35;;;;;;;;;0.00;0.00;;;;;11.52;83.78;99038.38;5079022;27;45350;-62
2024/03/30 03:02:01;;;;;;;;;0.00;0.00;;;;;11.43;83.67;99021.13;5078863;27;45309;-62
2024/03/30 03:04:26;;;;;;;;;0.00;0.00;;;;;11.47;83.60;99025.31;5078931;27;45354;-62
2024/03/30 03:06:51;;;;;;;;;0.00;0.00;;;;;11.40;83.85;99020.47;5077447;28;48599;-62
2024/03/30 03:09:17;;;;;;;;;0.00;0.00;;;;;11.47;83.81;99036.00;5078180;28;58879;-62
2024/03/30 03:11:42;;;;;;;;;0.00;0.00;;;;;11.50;83.80;99035.81;5078861;27;45369;-62
2024/03/30 03:14:07;;;;;;;;;0.00;0.00;;;;;11.43;83.85;99030.97;5078976;27;45298;-62
2024/03/30 03:16:34;;;;;;;;;0.00;0.00;;;;;11.34;83.94;99015.50;5078431;27;45374;-62
2024/03/30 03:19:00;;;;;;;;;0.00;0.00;;;;;11.41;84.04;99030.19;5077316;28;45387;-62
2024/03/30 03:21:25;;;;;;;;;0.00;0.00;;;;;11.42;83.81;99027.41;5078636;27;45299;-62
2024/03/30 03:23:51;;;;;;;;;0.00;0.00;;;;;11.40;84.02;99018.63;5078481;28;45489;-62
2024/03/30 03:26:16;;;;;;;;;0.00;0.00;;;;;11.51;83.97;99036.69;5078238;27;45407;-63
2024/03/30 03:28:42;;;;;;;;;0.00;0.00;;;;;11.38;83.70;99011.69;5078425;27;45440;-62
2024/03/30 03:31:07;;;;;;;;;0.00;0.00;;;;;11.38;84.24;99009.03;5079702;28;45666;-62
2024/03/30 03:33:33;;;;;;;;;0.75;0.00;;;;;11.27;84.30;98994.50;5082014;28;45489;-62
2024/03/30 03:36:00;;;;;;;;;0.00;0.00;;;;;11.35;84.17;99018.06;5081969;27;45528;-62
2024/03/30 03:38:25;;;;;;;;;1.00;0.00;;;;;11.42;83.77;99023.88;5080461;28;45335;-62
2024/03/30 03:40:50;;;;;;;;;0.00;0.00;;;;;11.41;84.01;99017.69;5077142;28;45553;-62
2024/03/30 03:43:16;;;;;;;;;0.50;0.50;;;;;11.34;84.22;98997.66;5080481;28;45327;-62
2024/03/30 03:45:48;;;;;;;;;0.00;0.00;;;;;11.49;84.26;99019.88;5081565;27;45312;-62
2024/03/30 03:48:13;;;;;;;;;0.00;0.00;;;;;11.35;84.17;98990.50;5080700;28;45454;-62
2024/03/30 03:50:40;;;;;;;;;0.00;0.00;;;;;11.29;84.25;98992.63;5081874;28;45324;-62
2024/03/30 03:53:05;;;;;;;;;0.00;0.00;;;;;11.50;84.62;99033.13;5081755;27;45256;-62
2024/03/30 03:55:32;;;;;;;;;0.00;0.00;;;;;11.40;84.10;99007.09;5080173;28;46821;-62
2024/03/30 03:57:58;;;;;;;;;0.00;0.00;;;;;11.23;84.36;98976.97;5081822;27;45337;-62
2024/03/30 04:00:23;;;;;;;;;0.00;0.00;;;;;11.28;84.42;98988.22;5081572;28;45537;-62
2024/03/30 04:02:48;;;;;;;;;0.00;0.00;;;;;11.24;84.46;98967.13;5081589;28;45330;-62
2024/03/30 04:05:15;;;;;;;;;1.00;0.00;;;;;11.44;84.63;99003.28;5081369;28;45680;-62
2024/03/30 04:07:40;;;;;;;;;1.00;0.00;;;;;11.36;84.64;98986.88;5080087;28;45802;-62
2024/03/30 04:10:07;;;;;;;;;1.00;1.00;;;;;11.50;84.87;99016.25;5081522;27;45382;-62
2024/03/30 04:12:32;;;;;;;;;0.00;0.00;;;;;11.34;84.63;98989.63;5081578;27;45631;-62
2024/03/30 04:14:58;;;;;;;;;2.00;0.00;;;;;11.28;84.70;98990.03;5081186;27;46452;-62
2024/03/30 04:17:23;;;;;;;;;0.00;0.00;;;;;11.32;84.75;98995.06;5081235;28;45591;-62
2024/03/30 04:19:48;;;;;;;;;0.75;0.00;;;;;11.38;84.91;98995.66;5080042;28;45429;-62
2024/03/30 04:22:14;;;;;;;;;1.25;0.00;;;;;11.46;84.36;99004.91;5081016;27;45387;-62
2024/03/30 04:24:39;;;;;;;;;0.00;0.00;;;;;11.31;85.01;98982.69;5079530;28;47217;-62
2024/03/30 04:27:04;;;;;;;;;0.00;0.00;;;;;11.19;85.05;98956.75;5081108;27;45474;-62
2024/03/30 04:29:30;;;;;;;;;0.00;0.00;;;;;11.22;84.62;98967.22;5081306;27;45516;-62
2024/03/30 04:31:55;;;;;;;;;0.00;0.00;;;;;11.23;85.03;98963.63;5081234;27;45284;-62
2024/03/30 04:34:20;;;;;;;;;0.75;0.00;;;;;11.26;84.95;98966.09;5080841;28;48539;-62
2024/03/30 04:36:46;;;;;;;;;0.00;0.00;;;;;11.26;84.91;98950.06;5081009;28;45271;-62
2024/03/30 04:39:11;;;;;;;;;0.00;0.00;;;;;11.28;85.04;98955.31;5081056;27;45252;-62
2024/03/30 04:41:36;;;;;;;;;0.00;0.00;;;;;11.27;84.91;98951.78;5080452;27;45494;-62
2024/03/30 04:44:02;;;;;;;;;0.00;0.00;;;;;11.24;85.22;98948.44;5080772;27;45337;-62
2024/03/30 04:46:28;;;;;;;;;0.50;0.00;;;;;11.25;84.93;98958.19;5080718;28;45339;-62
2024/03/30 04:48:53;;;;;;;;;1.00;0.00;;;;;11.35;85.24;98971.81;5079742;28;45663;-62
2024/03/30 04:51:18;;;;;;;;;0.00;0.00;;;;;11.25;85.11;98963.53;5080859;27;45695;-62
2024/03/30 04:53:44;;;;;;;;;0.00;0.00;;;;;11.47;84.73;98993.25;5078780;28;47994;-62
2024/03/30 04:56:11;;;;;;;;;0.25;0.25;;;;;11.40;84.85;98985.72;5080631;27;45538;-62
2024/03/30 04:58:36;;;;;;;;;0.00;0.00;;;;;11.48;84.82;99002.97;5079392;28;45401;-62
2024/03/30 05:01:05;;;;;;;;;0.00;0.00;;;;;11.39;85.06;98998.22;5058058;28;45410;-62
2024/03/30 05:03:30;;;;;;;;;0.00;0.00;;;;;11.50;84.76;99022.44;5073675;28;45439;-63
2024/03/30 05:05:56;;;;;;;;;1.00;0.00;;;;;11.37;84.85;99002.81;5080324;27;45333;-62
2024/03/30 05:08:22;;;;;;;;;0.00;0.00;;;;;11.28;84.75;98985.56;5080651;27;45386;-62
2024/03/30 05:10:47;;;;;;;;;1.00;1.00;;;;;11.50;85.18;99032.28;5080533;28;45474;-62
2024/03/30 05:13:13;;;;;;;;;0.00;0.00;;;;;11.37;85.17;99005.47;5080306;27;46249;-62
2024/03/30 05:15:42;;;;;;;;;1.00;1.00;;;;;11.48;85.35;99034.19;5080473;27;45409;-62
2024/03/30 05:18:09;;;;;;;;;2.00;2.00;;;;;11.35;85.04;99019.91;5080428;27;45363;-62
2024/03/30 05:20:53;;;;;;;;;2.00;2.00;;;;;11.35;85.06;99028.75;5080395;28;45305;-62
2024/03/30 05:23:18;;;;;;;;;3.50;3.00;;;;;11.56;85.23;99060.41;5079817;27;45556;-62
2024/03/30 05:25:45;;;;;;;;;2.00;1.00;;;;;11.37;85.00;99031.34;5080143;27;45463;-62
2024/03/30 05:28:11;;;;;;;;;3.00;3.00;;;;;11.38;85.17;99027.72;5080254;27;45492;-62
2024/03/30 05:30:38;;;;;;;;;2.50;2.00;;;;;11.44;84.99;99046.00;5080199;27;45379;-63
2024/03/30 05:33:04;;;;;;;;;1.50;1.50;;;;;11.42;85.19;99055.94;5079971;27;46370;-62
2024/03/30 05:35:29;;;;;;;;;0.50;0.25;;;;;11.36;84.53;99054.53;5078716;28;45432;-62
2024/03/30 05:37:54;;;;;;;;;1.25;1.00;;;;;11.35;85.33;99055.47;5079967;27;45377;-62
2024/03/30 05:40:20;;;;;;;;;1.00;1.00;;;;;11.34;85.29;99063.59;5080058;28;45460;-62
2024/03/30 05:42:45;;;;;;;;;0.00;0.00;;;;;11.48;84.73;99084.97;5078474;28;47077;-62
2024/03/30 05:45:11;;;;;;;;;0.00;0.00;;;;;11.48;84.59;99087.63;5080062;27;45448;-62
2024/03/30 05:47:36;;;;;;;;;0.25;0.25;;;;;11.39;84.95;99077.50;5079942;27;45405;-62
2024/03/30 05:50:01;;;;;;;;;1.00;1.00;;;;;11.24;84.89;99066.84;5079963;27;45448;-62
2024/03/30 05:52:27;;;;;;;;;0.00;0.00;;;;;11.23;85.39;99070.44;5078583;27;45541;-62
2024/03/30 05:54:52;;;;;;;;;0.00;0.00;;;;;11.23;85.29;99074.94;5079934;27;45544;-62
2024/03/30 05:57:17;;;;;;;;;1.00;1.00;;;;;11.25;84.71;99075.72;5078290;28;45873;-62
2024/03/30 05:59:43;;;;;;;;;6.50;4.00;;;;;11.24;85.38;99082.00;5078278;28;45770;-62
2024/03/30 06:02:08;;;;;;;;;0.00;0.00;;;;;11.26;85.48;99098.78;5079468;27;46306;-62
2024/03/30 06:04:34;;;;;;;;;2.50;1.00;;;;;11.36;85.30;99112.44;5079555;28;45385;-62
2024/03/30 06:06:59;;;;;;;;;0.50;0.50;;;;;11.17;85.11;99083.31;5078292;28;45316;-62
2024/03/30 06:21:20;;;;;;;;;1.00;1.00;;;;;11.30;85.57;99106.50;5160631;27;45379;-63
2024/03/30 06:23:45;;;;;;;;;1.00;1.00;;;;;11.36;85.77;99124.00;5136059;27;45441;-61
2024/03/30 06:26:10;;;;;;;;;2.50;1.50;;;;;11.36;85.77;99120.44;5137205;27;47011;-61
2024/03/30 06:28:35;;;;;;;;;1.00;1.00;;;;;11.38;86.05;99119.41;5136610;27;53920;-61
2024/03/30 06:31:01;;;;;;;;;0.00;0.00;;;;;11.38;85.66;99113.22;5132736;27;45643;-61
2024/03/30 06:33:28;;;;;;;;;0.00;0.00;;;;;11.40;86.00;99117.50;5137589;27;45283;-61
2024/03/30 06:35:54;;;;;;;;;1.00;1.00;;;;;11.40;86.15;99116.66;5137371;27;45329;-61
2024/03/30 06:38:19;;;;;;;;;0.50;0.50;;;;;11.28;86.03;99104.91;5135938;27;45674;-61
2024/03/30 06:43:41;;;;;;;;;0.50;0.50;;;;;11.32;86.10;99117.94;5136914;27;45466;-61
2024/03/30 06:46:07;;;;;;;;;0.00;0.00;;;;;11.35;86.21;99124.94;5135083;27;45433;-61
2024/03/30 06:48:32;;;;;;;;;0.00;0.00;;;;;11.36;85.78;99118.66;5133754;27;45721;-61
2024/03/30 06:50:58;;;;;;;;;0.00;0.00;;;;;11.30;86.40;99087.81;5137050;27;46180;-61
2024/03/30 06:53:23;;;;;;;;;0.00;0.00;;;;;11.38;85.99;99084.69;5135732;27;45447;-61
2024/03/30 06:55:48;;;;;;;;;0.00;0.00;;;;;11.38;86.05;99091.84;5136970;27;45374;-61
2024/03/30 06:58:14;;;;;;;;;0.00;0.00;;;;;11.32;86.26;99109.09;5136931;27;45525;-61
2024/03/30 07:00:39;;;;;;;;;0.00;0.00;;;;;11.26;86.46;99110.34;5136478;27;46234;-61
2024/03/30 07:03:05;;;;;;;;;1.00;1.00;;;;;11.37;86.58;99133.69;5136864;27;45441;-61
2024/03/30 07:05:31;;;;;;;;;0.50;0.00;;;;;11.35;85.98;99140.97;5136737;27;45443;-61
2024/03/30 07:07:56;;;;;;;;;2.00;1.00;;;;;11.40;86.42;99159.38;5136600;27;45324;-61
2024/03/30 07:10:22;;;;;;;;;1.00;0.75;;;;;11.34;86.06;99157.06;5136084;27;46421;-61
2024/03/30 07:12:54;;;;;;;;;2.25;0.00;;;;;11.38;86.44;99180.84;5134073;27;63553;-61
2024/03/30 07:15:20;;;;;;;;;1.00;0.25;;;;;11.36;86.37;99190.78;5135205;27;45363;-61
2024/03/30 07:17:45;;;;;;;;;1.50;0.00;;;;;11.24;86.24;99168.34;5136615;27;45326;-61
2024/03/30 07:20:10;;;;;;;;;0.00;0.00;;;;;11.32;87.10;99183.88;5127241;27;61202;-61
2024/03/30 07:22:35;;;;;;;;;1.00;0.50;;;;;11.32;86.81;99176.72;5136691;27;45322;-61
2024/03/30 07:25:01;;;;;;;;;0.75;0.00;;;;;11.31;86.54;99176.84;5120316;27;46430;-61
2024/03/30 07:27:26;;;;;;;;;0.75;0.75;;;;;11.35;86.57;99181.03;5122076;27;45372;-61
2024/03/30 07:29:51;;;;;;;;;0.00;0.00;;;;;11.38;86.66;99185.34;5120041;27;50196;-61
2024/03/30 07:32:17;;;;;;;;;0.00;0.00;;;;;11.33;86.54;99180.28;5121775;27;45630;-61
2024/03/30 07:34:47;;;;;;;;;0.25;0.25;;;;;11.38;86.55;99180.00;5120069;27;45312;-61
2024/03/30 07:37:13;;;;;;;;;0.25;0.25;;;;;11.33;86.66;99156.22;5112273;27;45425;-61
2024/03/30 07:39:40;;;;;;;;;0.50;0.50;;;;;11.33;86.05;99145.53;5116064;27;45522;-61
2024/03/30 07:42:05;;;;;;;;;1.00;1.00;;;;;11.38;86.62;99135.44;5120957;27;46284;-61
2024/03/30 07:44:31;;;;;;;;;1.00;1.00;;;;;11.32;86.67;99112.59;5118491;27;45514;-61
2024/03/30 07:46:57;;;;;;;;;1.00;1.00;;;;;11.38;86.77;99143.44;5116961;27;45308;-61
2024/03/30 07:49:22;;;;;;;;;1.00;1.00;;;;;11.36;86.99;99168.53;5116883;27;47614;-61
2024/03/30 07:51:47;;;;;;;;;1.00;1.00;;;;;11.30;86.81;99165.28;5120007;27;48512;-61
2024/03/30 07:54:13;;;;;;;;;1.00;1.00;;;;;11.32;86.87;99167.84;5118384;27;45280;-61
2024/03/30 07:56:38;;;;;;;;;2.25;2.00;;;;;11.38;86.99;99162.16;5135902;27;45375;-61
2024/03/30 07:59:04;;;;;;;;;0.25;0.25;;;;;11.28;87.27;99134.28;5120035;27;45359;-61
2024/03/30 08:01:31;;;;;;;;;0.25;0.00;;;;;11.36;87.01;99149.81;5120850;27;45423;-61
2024/03/30 08:03:56;;;;;;;;;2.00;0.00;;;;;11.31;86.73;99148.31;5118375;27;45409;-61
2024/03/30 08:06:21;;;;;;;;;0.50;0.50;;;;;11.35;86.96;99158.81;5111685;27;46254;-61
2024/03/30 08:08:47;;;;;;;;;1.00;1.00;;;;;11.17;87.25;99136.75;5117260;27;46107;-61
2024/03/30 08:11:12;;;;;;;;;0.00;0.00;;;;;11.38;87.15;99188.88;5120426;27;45560;-61
2024/03/30 08:13:37;;;;;;;;;1.00;0.00;;;;;11.28;86.73;99191.22;5126613;27;45490;-61
2024/03/30 08:16:03;;;;;;;;;0.00;0.00;;;;;11.36;86.56;99203.25;5119655;27;58699;-62
2024/03/30 08:18:28;;;;;;;;;0.00;0.00;;;;;11.35;86.78;99199.72;5120390;27;47443;-62
2024/03/30 08:20:53;;;;;;;;;0.25;0.25;;;;;11.36;86.83;99204.13;5118108;27;45386;-62
2024/03/30 08:23:19;;;;;;;;;0.00;0.00;;;;;11.24;86.94;99199.50;5122014;27;45307;-62
2024/03/30 08:25:45;;;;;;;;;2.75;0.00;;;;;11.34;86.99;99216.69;5121143;27;45531;-62
2024/03/30 08:28:10;;;;;;;;;0.50;0.00;;;;;11.15;86.56;99179.56;5137138;27;48037;-62
2024/03/30 08:30:36;;;;;;;;;0.00;0.00;;;;;11.38;86.75;99215.59;5121441;27;45384;-62
2024/03/30 08:33:02;;;;;;;;;0.00;0.00;;;;;11.41;86.85;99219.88;5120832;27;45476;-62
2024/03/30 08:35:27;;;;;;;;;0.00;0.00;;;;;11.39;86.89;99224.44;5121327;27;45582;-62
2024/03/30 08:37:52;;;;;;;;;2.00;0.00;;;;;11.40;87.10;99235.03;5120261;27;45854;-62
2024/03/30 08:40:18;;;;;;;;;0.00;0.00;;;;;11.46;86.78;99252.50;5122973;27;45302;-62
2024/03/30 08:42:45;;;;;;;;;0.00;0.00;;;;;11.44;86.68;99257.97;5121791;27;45548;-62
2024/03/30 08:45:10;;;;;;;;;0.00;0.00;;;;;11.44;86.84;99251.75;5121299;27;46519;-62
2024/03/30 08:47:35;;;;;;;;;0.00;0.00;;;;;11.39;86.64;99260.03;5121391;27;46021;-63
2024/03/30 08:50:00;;;;;;;;;0.00;0.00;;;;;11.43;86.66;99280.28;5119601;27;49346;-62
2024/03/30 08:52:26;;;;;;;;;0.00;0.00;;;;;11.42;86.61;99280.38;5116623;27;46118;-62
2024/03/30 08:54:51;;;;;;;;;0.00;0.00;;;;;11.42;86.49;99278.56;5118296;27;45491;-62
2024/03/30 08:57:17;;;;;;;;;0.00;0.00;;;;;11.45;87.11;99288.22;5121451;27;45378;-62
2024/03/30 08:59:43;;;;;;;;;0.75;0.75;;;;;11.47;87.02;99281.81;5120842;27;45443;-62
2024/03/30 09:02:08;;;;;;;;;0.00;0.00;;;;;11.40;86.75;99271.59;5137438;27;45641;-63
2024/03/30 09:04:33;;;;;;;;;1.00;0.00;;;;;11.29;87.03;99258.84;5120693;27;54679;-63
2024/03/30 09:07:01;;;;;;;;;0.00;0.00;;;;;11.36;87.09;99278.94;5121170;27;45422;-63
2024/03/30 09:09:28;;;;;;;;;0.00;0.00;;;;;11.36;87.36;99288.75;5120466;27;45296;-63
2024/03/30 09:11:56;;;;;;;;;0.00;0.00;;;;;11.46;87.06;99313.97;5113573;27;45330;-63
2024/03/30 09:14:22;;;;;;;;;0.00;0.00;;;;;11.42;87.37;99285.72;5119772;27;45429;-63
2024/03/30 09:16:47;;;;;;;;;0.00;0.00;;;;;11.50;87.12;99308.34;5121046;27;45428;-63
2024/03/30 09:19:14;;;;;;;;;1.00;0.00;;;;;11.54;86.91;99319.72;5136386;27;45542;-63
2024/03/30 09:21:40;;;;;;;;;0.00;0.00;;;;;11.51;86.23;99327.94;5118702;27;45490;-63
2024/03/30 09:24:05;;;;;;;;;0.00;0.00;;;;;11.51;86.77;99325.28;5120629;27;45594;-63
2024/03/30 09:26:31;;;;;;;;;0.00;0.00;;;;;11.48;86.61;99328.97;5115777;27;47039;-63
2024/03/30 09:28:56;;;;;;;;;0.00;0.00;;;;;11.43;86.42;99312.34;5117707;27;45449;-63
2024/03/30 09:31:21;;;;;;;;;1.00;0.00;;;;;11.50;86.84;99315.53;5120307;27;57690;-63
2024/03/30 09:33:47;;;;;;;;;0.00;0.00;;;;;11.52;86.80;99326.97;5120549;27;45303;-63
2024/03/30 09:36:17;;;;;;;;;0.00;0.00;;;;;11.54;87.19;99338.44;5120602;27;45340;-63
2024/03/30 09:38:42;;;;;;;;;0.50;0.00;;;;;11.54;86.81;99334.91;5120450;27;45406;-63
2024/03/30 09:41:11;;;;;;;;;1.00;0.00;;;;;11.45;87.09;99328.28;5120274;27;45627;-63
2024/03/30 09:43:37;;;;;;;;;1.00;1.00;;;;;11.48;86.84;99322.78;5115173;27;45577;-63
2024/03/30 09:46:04;;;;;;;;;0.00;0.00;;;;;11.56;87.52;99335.66;5112203;27;46654;-63
2024/03/30 09:48:31;;;;;;;;;0.00;0.00;;;;;11.49;87.44;99328.03;5120158;27;45382;-63
2024/03/30 09:50:57;;;;;;;;;0.00;0.00;;;;;11.55;87.80;99342.84;5120353;27;45491;-63
2024/03/30 09:53:25;;;;;;;;;0.00;0.00;;;;;11.58;87.70;99347.16;5120283;27;45387;-63
2024/03/30 09:55:53;;;;;;;;;0.00;0.00;;;;;11.61;87.35;99349.63;5119960;27;46189;-63
2024/03/30 09:58:19;;;;;;;;;0.00;0.00;;;;;11.62;86.96;99346.00;5136570;27;45833;-63
2024/03/30 10:00:46;;;;;;;;;0.00;0.00;;;;;11.66;87.24;99351.09;5120412;27;45479;-63
2024/03/30 10:03:11;;;;;;;;;1.75;0.50;;;;;11.56;86.85;99338.34;5120168;27;45405;-63
2024/03/30 10:05:40;;;;;;;;;0.00;0.00;;;;;11.55;87.55;99336.63;5120223;27;45468;-63
2024/03/30 10:08:08;;;;;;;;;1.00;0.00;;;;;11.60;87.55;99347.91;5120114;27;45304;-63
2024/03/30 10:10:33;;;;;;;;;1.00;0.00;;;;;11.53;86.91;99331.38;5119845;27;45501;-63
2024/03/30 10:13:11;;;;;;;;;0.00;0.00;;;;;11.62;87.07;99351.34;5119068;27;45572;-63
2024/03/30 10:15:42;;;;;;;;;0.00;0.00;;;;;11.62;87.56;99340.66;5120032;27;45437;-63
2024/03/30 10:18:08;;;;;;;;;0.00;0.00;;;;;11.45;87.71;99318.47;5101601;27;45328;-63
2024/03/30 10:20:34;;;;;;;;;0.00;0.00;;;;;11.39;87.68;99304.59;5113635;27;46293;-63
2024/03/30 10:23:00;;;;;;;;;1.00;1.00;;;;;11.63;88.23;99335.22;5120108;27;45444;-63
2024/03/30 10:25:25;;;;;;;;;0.00;0.00;;;;;11.60;87.47;99324.72;5119567;27;45383;-63
2024/03/30 10:27:51;;;;;;;;;0.00;0.00;;;;;11.70;87.81;99343.75;5135998;27;45375;-63
2024/03/30 10:30:17;;;;;;;;;0.50;0.50;;;;;11.67;87.58;99326.06;5119959;27;45489;-63
2024/03/30 10:32:44;;;;;;;;;1.25;0.00;;;;;11.76;87.78;99342.50;5120018;27;45363;-63
2024/03/30 10:35:13;;;;;;;;;1.00;1.00;;;;;11.65;87.23;99325.28;5119586;27;46633;-63
2024/03/30 10:37:38;;;;;;;;;1.00;1.00;;;;;11.70;87.54;99327.69;5120010;27;45565;-63
2024/03/30 10:40:08;;;;;;;;;0.00;0.00;;;;;11.76;87.04;99337.16;5117643;27;51414;-63
2024/03/30 10:42:34;;;;;;;;;0.00;0.00;;;;;11.72;87.74;99323.13;5115624;27;45439;-63
2024/03/30 10:45:03;;;;;;;;;0.50;0.50;;;;;11.75;87.40;99330.09;5116975;27;47048;-63
2024/03/30 10:47:29;;;;;;;;;0.25;0.25;;;;;11.71;87.74;99332.09;5119758;27;45307;-63
2024/03/30 10:49:56;;;;;;;;;1.25;0.00;;;;;11.80;87.49;99336.03;5119476;27;45619;-63
2024/03/30 10:52:21;;;;;;;;;0.00;0.00;;;;;11.81;87.30;99341.28;5119847;27;45394;-63
2024/03/30 10:54:47;;;;;;;;;2.00;1.00;;;;;11.79;87.67;99334.31;5119021;27;46764;-63
2024/03/30 10:57:12;;;;;;;;;0.00;0.00;;;;;11.92;87.36;99347.84;5122432;27;45433;-63
2024/03/30 10:59:41;;;;;;;;;1.75;0.75;;;;;11.93;87.10;99344.19;5123099;27;45351;-63
2024/03/30 11:02:22;;;;;;;;;0.00;0.00;;;;;11.97;87.74;99345.75;5123227;27;45385;-63
2024/03/30 11:04:50;;;;;;;;;0.00;0.00;;;;;12.00;87.36;99342.91;5121532;27;46281;-63
2024/03/30 11:07:16;;;;;;;;;0.00;0.00;;;;;11.96;87.35;99342.22;5121556;27;46087;-63
2024/03/30 11:09:42;;;;;;;;;1.00;0.00;;;;;11.94;87.22;99333.41;5122455;27;45349;-63
2024/03/30 11:12:09;;;;;;;;;0.00;0.00;;;;;11.99;87.16;99331.31;5119751;27;45883;-63
2024/03/30 11:14:34;;;;;;;;;4.00;1.00;;;;;12.03;87.41;99335.53;5137587;27;46954;-63
2024/03/30 11:17:23;;;;;;;;;1.00;1.00;;;;;11.96;86.67;99320.84;5122993;27;45414;-63
2024/03/30 11:20:17;;;;;;;;;1.00;1.00;;;;;12.04;86.14;99323.91;5111933;27;45422;-63
2024/03/30 11:22:52;;;;;;;;;0.00;0.00;;;;;12.05;86.52;99324.75;5120118;27;45374;-63
2024/03/30 11:25:21;;;;;;;;;0.25;0.25;;;;;12.03;87.08;99316.81;5122190;27;45465;-63
2024/03/30 11:27:49;;;;;;;;;1.75;1.75;;;;;12.10;86.47;99333.34;5117928;27;45362;-63
2024/03/30 11:30:28;;;;;;;;;1.00;1.00;;;;;12.16;87.28;99345.47;5118896;27;45543;-63
2024/03/30 11:33:07;;;;;;;;;1.75;1.00;;;;;12.19;87.03;99343.47;5122770;27;45394;-63
2024/03/30 11:35:44;;;;;;;;;1.00;0.75;;;;;12.14;86.50;99332.19;5135107;27;47114;-63
2024/03/30 11:38:11;;;;;;;;;2.00;1.00;;;;;12.19;86.48;99338.13;5121151;27;46926;-63
2024/03/30 11:40:42;;;;;;;;;0.25;0.25;;;;;12.20;86.71;99326.47;5117369;27;45541;-63
2024/03/30 11:43:26;;;;;;;;;1.00;1.00;;;;;12.25;86.26;99328.03;5116679;27;46178;-63
2024/03/30 11:45:52;;;;;;;;;1.00;1.00;;;;;12.15;86.11;99317.88;5122296;27;46549;-63